createdAt,value
2018-06-12T00:00:37.670Z,99581
2018-06-12T00:01:42.832Z,99575
2018-06-12T00:02:47.991Z,99581
2018-06-12T00:03:53.215Z,99593
2018-06-12T00:04:58.361Z,99584
2018-06-12T00:06:03.264Z,99587
2018-06-12T00:07:08.540Z,99587
2018-06-12T00:08:13.984Z,99581
2018-06-12T00:09:19.428Z,99575
2018-06-12T00:10:24.838Z,99587
2018-06-12T00:11:30.280Z,99578
2018-06-12T00:12:35.840Z,99584
2018-06-12T00:13:40.995Z,99587
2018-06-12T00:14:45.878Z,99593
2018-06-12T00:15:51.103Z,99593
2018-06-12T00:16:56.540Z,99584
2018-06-12T00:18:01.696Z,99595
2018-06-12T00:19:06.395Z,99590
2018-06-12T00:20:11.858Z,99601
2018-06-12T00:21:17.038Z,99593
2018-06-12T00:22:22.441Z,99604
2018-06-12T00:23:27.874Z,99590
2018-06-12T00:24:33.555Z,99595
2018-06-12T00:25:38.707Z,99584
2018-06-12T00:26:44.139Z,99590
2018-06-12T00:27:49.656Z,99590
2018-06-12T00:28:55.091Z,99595
2018-06-12T00:30:00.535Z,99601
2018-06-12T00:31:06.436Z,99598
2018-06-12T00:32:11.589Z,99604
2018-06-12T00:33:17.020Z,99601
2018-06-12T00:34:22.800Z,99607
2018-06-12T00:35:28.247Z,99604
2018-06-12T00:36:33.676Z,99616
2018-06-12T00:37:38.836Z,99610
2018-06-12T00:38:43.995Z,99619
2018-06-12T00:39:49.443Z,99613
2018-06-12T00:40:54.875Z,99622
2018-06-12T00:41:59.745Z,99610
2018-06-12T00:43:04.572Z,99604
2018-06-12T00:44:09.754Z,99616
2018-06-12T00:45:15.199Z,99604
2018-06-12T00:46:20.717Z,99624
2018-06-12T00:47:26.182Z,99613
2018-06-12T00:48:32.015Z,99624
2018-06-12T00:49:37.196Z,99633
2018-06-12T00:50:42.628Z,99639
2018-06-12T00:51:48.318Z,99636
2018-06-12T00:52:53.782Z,99642
2018-06-12T00:53:59.223Z,99636
2018-06-12T00:55:04.452Z,99642
2018-06-12T00:56:09.630Z,99639
2018-06-12T00:57:15.066Z,99636
2018-06-12T00:58:20.852Z,99627
2018-06-12T00:59:25.453Z,99630
2018-06-12T01:00:30.138Z,99639
2018-06-12T01:01:35.305Z,99630
2018-06-12T01:02:40.494Z,99647
2018-06-12T01:03:46.351Z,99647
2018-06-12T01:04:51.798Z,99642
2018-06-12T01:05:56.673Z,99630
2018-06-12T01:07:02.455Z,99639
2018-06-12T01:08:07.613Z,99639
2018-06-12T01:09:13.047Z,99642
2018-06-12T01:10:18.312Z,99639
2018-06-12T01:11:23.747Z,99630
2018-06-12T01:12:29.505Z,99627
2018-06-12T01:13:34.934Z,99627
2018-06-12T01:14:40.369Z,99642
2018-06-12T01:15:45.773Z,99624
2018-06-12T01:16:51.211Z,99630
2018-06-12T01:17:56.642Z,99630
2018-06-12T01:19:01.485Z,99619
2018-06-12T01:20:06.353Z,99622
2018-06-12T01:21:11.797Z,99622
2018-06-12T01:22:16.907Z,99616
2018-06-12T01:23:22.052Z,99610
2018-06-12T01:24:27.187Z,99610
2018-06-12T01:25:31.756Z,99607
2018-06-12T01:26:37.195Z,99607
2018-06-12T01:27:42.306Z,99619
2018-06-12T01:28:47.450Z,99619
2018-06-12T01:29:52.885Z,99610
2018-06-12T01:30:58.571Z,99616
2018-06-12T01:32:03.162Z,99610
2018-06-12T01:33:08.022Z,99613
2018-06-12T01:34:13.426Z,99619
2018-06-12T01:35:18.865Z,99624
2018-06-12T01:36:23.737Z,99624
2018-06-12T01:37:44.076Z,99619
2018-06-12T01:38:49.231Z,99627
2018-06-12T01:39:55.110Z,99622
2018-06-12T01:41:00.547Z,99627
2018-06-12T01:42:05.731Z,99622
2018-06-12T01:43:10.973Z,99624
2018-06-12T01:44:16.135Z,99622
2018-06-12T01:45:21.618Z,99630
2018-06-12T01:46:27.195Z,99633
2018-06-12T01:47:32.348Z,99636
2018-06-12T01:48:37.505Z,99630
2018-06-12T01:49:42.388Z,99636
2018-06-12T01:50:47.012Z,99636
2018-06-12T01:51:52.798Z,99642
2018-06-12T01:52:57.942Z,99645
2018-06-12T01:54:03.105Z,99636
2018-06-12T01:55:08.124Z,99630
2018-06-12T01:56:13.587Z,99633
2018-06-12T01:57:19.031Z,99636
2018-06-12T01:58:24.814Z,99639
2018-06-12T01:59:29.967Z,99642
2018-06-12T02:00:35.877Z,99639
2018-06-12T02:01:41.040Z,99645
2018-06-12T02:02:45.618Z,99630
2018-06-12T02:03:51.403Z,99661
2018-06-12T02:04:56.552Z,99639
2018-06-12T02:06:01.696Z,99658
2018-06-12T02:07:06.735Z,99655
2018-06-12T02:08:11.896Z,99647
2018-06-12T02:09:17.045Z,99645
2018-06-12T02:10:22.450Z,99645
2018-06-12T02:11:27.608Z,99647
2018-06-12T02:12:33.218Z,99652
2018-06-12T02:13:38.652Z,99647
2018-06-12T02:14:44.098Z,99647
2018-06-12T02:15:49.369Z,99639
2018-06-12T02:16:54.810Z,99655
2018-06-12T02:18:00.242Z,99639
2018-06-12T02:19:05.406Z,99642
2018-06-12T02:20:10.274Z,99639
2018-06-12T02:21:15.706Z,99642
2018-06-12T02:22:21.362Z,99649
2018-06-12T02:23:26.794Z,99645
2018-06-12T02:24:32.769Z,99647
2018-06-12T02:25:38.201Z,99649
2018-06-12T02:26:43.352Z,99642
2018-06-12T02:27:48.767Z,99647
2018-06-12T02:28:54.211Z,99647
2018-06-12T02:29:59.367Z,99642
2018-06-12T02:31:04.580Z,99642
2018-06-12T02:32:09.448Z,99647
2018-06-12T02:33:14.600Z,99645
2018-06-12T02:34:20.283Z,99636
2018-06-12T02:35:25.436Z,99652
2018-06-12T02:36:31.324Z,99647
2018-06-12T02:37:36.474Z,99655
2018-06-12T02:38:41.623Z,99655
2018-06-12T02:39:47.179Z,99652
2018-06-12T02:40:52.609Z,99652
2018-06-12T02:41:58.056Z,99658
2018-06-12T02:43:03.268Z,99652
2018-06-12T02:44:08.691Z,99655
2018-06-12T02:45:13.849Z,99658
2018-06-12T02:46:19.526Z,99649
2018-06-12T02:47:24.383Z,99645
2018-06-12T02:48:30.433Z,99652
2018-06-12T02:49:35.865Z,99661
2018-06-12T02:50:41.015Z,99658
2018-06-12T02:51:46.133Z,99673
2018-06-12T02:52:51.573Z,99658
2018-06-12T02:53:56.433Z,99664
2018-06-12T02:55:01.942Z,99667
2018-06-12T02:56:05.971Z,99670
2018-06-12T02:57:11.416Z,99676
2018-06-12T02:58:17.102Z,99667
2018-06-12T02:59:22.273Z,99676
2018-06-12T03:00:28.408Z,99681
2018-06-12T03:01:33.853Z,99670
2018-06-12T03:02:39.031Z,99696
2018-06-12T03:03:44.478Z,99667
2018-06-12T03:04:49.074Z,99670
2018-06-12T03:05:54.520Z,99681
2018-06-12T03:07:00.078Z,99673
2018-06-12T03:08:05.508Z,99679
2018-06-12T03:09:10.420Z,99681
2018-06-12T03:10:15.570Z,99684
2018-06-12T03:11:20.444Z,99679
2018-06-12T03:12:26.050Z,99681
2018-06-12T03:13:30.911Z,99676
2018-06-12T03:14:36.358Z,99693
2018-06-12T03:15:41.221Z,99687
2018-06-12T03:16:46.391Z,99684
2018-06-12T03:17:51.553Z,99684
2018-06-12T03:18:56.775Z,99679
2018-06-12T03:20:01.642Z,99673
2018-06-12T03:21:06.505Z,99687
2018-06-12T03:22:12.021Z,99673
2018-06-12T03:23:17.285Z,99681
2018-06-12T03:24:22.555Z,99676
2018-06-12T03:25:27.381Z,99673
2018-06-12T03:26:32.561Z,99673
2018-06-12T03:27:37.682Z,99684
2018-06-12T03:28:43.103Z,99676
2018-06-12T03:29:48.560Z,99679
2018-06-12T03:30:53.544Z,99676
2018-06-12T03:31:58.993Z,99679
2018-06-12T03:33:04.167Z,99658
2018-06-12T03:34:09.008Z,99679
2018-06-12T03:35:13.889Z,99676
2018-06-12T03:36:19.030Z,99673
2018-06-12T03:37:24.874Z,99679
2018-06-12T03:38:30.045Z,99673
2018-06-12T03:39:35.598Z,99681
2018-06-12T03:40:41.049Z,99684
2018-06-12T03:41:46.206Z,99681
2018-06-12T03:42:51.609Z,99679
2018-06-12T03:43:57.074Z,99681
2018-06-12T03:45:01.662Z,99681
2018-06-12T03:46:06.634Z,99679
2018-06-12T03:47:12.102Z,99679
2018-06-12T03:48:17.557Z,99676
2018-06-12T03:49:23.200Z,99676
2018-06-12T03:50:28.404Z,99684
2018-06-12T03:51:33.798Z,99679
2018-06-12T03:52:38.663Z,99670
2018-06-12T03:53:44.100Z,99681
2018-06-12T03:54:49.495Z,99681
2018-06-12T03:55:54.926Z,99681
2018-06-12T03:57:00.125Z,99681
2018-06-12T03:58:04.947Z,99681
2018-06-12T03:59:09.815Z,99687
2018-06-12T04:00:14.705Z,99679
2018-06-12T04:01:19.584Z,99687
2018-06-12T04:02:25.017Z,99687
2018-06-12T04:03:30.796Z,99676
2018-06-12T04:04:35.663Z,99676
2018-06-12T04:05:41.092Z,99690
2018-06-12T04:06:46.352Z,99693
2018-06-12T04:07:51.968Z,99687
2018-06-12T04:08:57.405Z,99684
2018-06-12T04:10:02.965Z,99684
2018-06-12T04:11:07.266Z,99696
2018-06-12T04:12:12.418Z,99679
2018-06-12T04:13:17.817Z,99693
2018-06-12T04:14:22.980Z,99684
2018-06-12T04:15:28.751Z,99690
2018-06-12T04:16:33.949Z,99693
2018-06-12T04:17:39.126Z,99693
2018-06-12T04:18:45.013Z,99681
2018-06-12T04:19:50.182Z,99684
2018-06-12T04:20:55.329Z,99684
2018-06-12T04:22:00.465Z,99693
2018-06-12T04:23:05.333Z,99687
2018-06-12T04:24:10.761Z,99693
2018-06-12T04:25:15.943Z,99693
2018-06-12T04:26:21.116Z,99693
2018-06-12T04:27:26.685Z,99687
2018-06-12T04:28:32.137Z,99684
2018-06-12T04:29:37.292Z,99687
2018-06-12T04:30:43.274Z,99684
2018-06-12T04:31:48.707Z,99681
2018-06-12T04:32:53.855Z,99684
2018-06-12T04:33:59.280Z,99693
2018-06-12T04:35:03.868Z,99690
2018-06-12T04:36:09.051Z,99690
2018-06-12T04:37:14.484Z,99684
2018-06-12T04:38:19.933Z,99673
2018-06-12T04:39:24.502Z,99670
2018-06-12T04:40:29.889Z,99676
2018-06-12T04:41:34.747Z,99667
2018-06-12T04:42:40.465Z,99679
2018-06-12T04:43:45.337Z,99679
2018-06-12T04:44:50.491Z,99684
2018-06-12T04:45:55.755Z,99681
2018-06-12T04:47:01.232Z,99679
2018-06-12T04:48:06.132Z,99676
2018-06-12T04:49:11.672Z,99679
2018-06-12T04:50:17.113Z,99684
2018-06-12T04:51:22.551Z,99693
2018-06-12T04:52:28.045Z,99684
2018-06-12T04:53:33.227Z,99699
2018-06-12T04:54:38.950Z,99693
2018-06-12T04:55:44.212Z,99690
2018-06-12T04:56:49.090Z,99699
2018-06-12T04:57:54.484Z,99708
2018-06-12T04:58:59.929Z,99708
2018-06-12T05:00:05.073Z,99699
2018-06-12T05:01:10.770Z,99681
2018-06-12T05:02:15.928Z,99693
2018-06-12T05:03:21.363Z,99699
2018-06-12T05:04:27.367Z,99696
2018-06-12T05:05:32.817Z,99699
2018-06-12T05:06:38.222Z,99702
2018-06-12T05:07:43.088Z,99699
2018-06-12T05:08:48.249Z,99696
2018-06-12T05:09:53.813Z,99693
2018-06-12T05:10:58.674Z,99693
2018-06-12T05:12:03.250Z,99702
2018-06-12T05:13:09.082Z,99696
2018-06-12T05:14:14.540Z,99699
2018-06-12T05:15:19.992Z,99696
2018-06-12T05:16:25.684Z,99696
2018-06-12T05:17:31.118Z,99696
2018-06-12T05:18:36.255Z,99705
2018-06-12T05:19:41.828Z,99699
2018-06-12T05:20:47.430Z,99693
2018-06-12T05:21:52.826Z,99705
2018-06-12T05:22:58.011Z,99705
2018-06-12T05:24:03.174Z,99705
2018-06-12T05:25:08.211Z,99699
2018-06-12T05:26:13.088Z,99702
2018-06-12T05:27:18.397Z,99699
2018-06-12T05:28:24.182Z,99705
2018-06-12T05:29:29.349Z,99699
2018-06-12T05:30:35.134Z,99684
2018-06-12T05:31:40.001Z,99699
2018-06-12T05:32:45.446Z,99699
2018-06-12T05:33:50.847Z,99702
2018-06-12T05:34:56.008Z,99696
2018-06-12T05:36:01.153Z,99705
2018-06-12T05:37:06.285Z,99705
2018-06-12T05:38:11.444Z,99708
2018-06-12T05:39:16.646Z,99702
2018-06-12T05:40:22.045Z,99702
2018-06-12T05:41:27.204Z,99696
2018-06-12T05:42:32.858Z,99690
2018-06-12T05:43:37.743Z,99708
2018-06-12T05:44:43.183Z,99699
2018-06-12T05:45:48.867Z,99699
2018-06-12T05:46:54.184Z,99696
2018-06-12T05:47:59.757Z,99693
2018-06-12T05:49:04.893Z,99699
2018-06-12T05:50:09.760Z,99699
2018-06-12T05:51:14.914Z,99699
2018-06-12T05:52:20.604Z,99708
2018-06-12T05:53:26.043Z,99708
2018-06-12T05:54:30.891Z,99708
2018-06-12T05:55:35.463Z,99699
2018-06-12T05:56:40.621Z,99696
2018-06-12T05:57:46.307Z,99716
2018-06-12T05:58:51.452Z,99713
2018-06-12T05:59:56.929Z,99708
2018-06-12T06:01:02.619Z,99708
2018-06-12T06:02:07.210Z,99713
2018-06-12T06:03:12.648Z,99708
2018-06-12T06:04:18.329Z,99708
2018-06-12T06:05:23.855Z,99713
2018-06-12T06:06:29.502Z,99722
2018-06-12T06:07:34.669Z,99713
2018-06-12T06:08:39.540Z,99725
2018-06-12T06:09:45.242Z,99716
2018-06-12T06:10:50.416Z,99731
2018-06-12T06:11:55.869Z,99719
2018-06-12T06:13:01.236Z,99734
2018-06-12T06:14:06.105Z,99734
2018-06-12T06:15:10.410Z,99725
2018-06-12T06:16:15.944Z,99725
2018-06-12T06:17:20.813Z,99725
2018-06-12T06:18:41.177Z,99734
2018-06-12T06:19:46.620Z,99728
2018-06-12T06:20:52.069Z,99734
2018-06-12T06:21:57.207Z,99734
2018-06-12T06:23:01.773Z,99739
2018-06-12T06:24:06.851Z,99722
2018-06-12T06:25:12.716Z,99736
2018-06-12T06:26:17.581Z,99742
2018-06-12T06:27:22.742Z,99736
2018-06-12T06:28:28.366Z,99728
2018-06-12T06:29:33.519Z,99733
2018-06-12T06:30:38.650Z,99739
2018-06-12T06:31:44.080Z,99739
2018-06-12T06:32:49.509Z,99733
2018-06-12T06:33:55.306Z,99728
2018-06-12T06:35:00.465Z,99733
2018-06-12T06:36:05.825Z,99725
2018-06-12T06:37:11.233Z,99736
2018-06-12T06:38:16.391Z,99733
2018-06-12T06:39:21.537Z,99736
2018-06-12T06:40:26.582Z,99736
2018-06-12T06:41:31.735Z,99733
2018-06-12T06:42:37.632Z,99733
2018-06-12T06:43:43.082Z,99722
2018-06-12T06:44:48.229Z,99730
2018-06-12T06:45:53.909Z,99728
2018-06-12T06:46:59.062Z,99730
2018-06-12T06:48:04.219Z,99725
2018-06-12T06:49:09.385Z,99728
2018-06-12T06:50:14.548Z,99730
2018-06-12T06:51:19.713Z,99733
2018-06-12T06:52:24.871Z,99728
2018-06-12T06:53:30.368Z,99725
2018-06-12T06:54:36.096Z,99736
2018-06-12T06:55:41.287Z,99725
2018-06-12T06:56:46.420Z,99725
2018-06-12T06:57:51.932Z,99722
2018-06-12T06:58:57.392Z,99716
2018-06-12T07:00:02.271Z,99724
2018-06-12T07:01:07.675Z,99733
2018-06-12T07:02:12.858Z,99727
2018-06-12T07:03:18.013Z,99727
2018-06-12T07:04:23.615Z,99730
2018-06-12T07:05:28.492Z,99733
2018-06-12T07:06:34.062Z,99742
2018-06-12T07:07:39.496Z,99727
2018-06-12T07:08:44.948Z,99730
2018-06-12T07:09:50.353Z,99733
2018-06-12T07:10:55.783Z,99730
2018-06-12T07:12:00.377Z,99733
2018-06-12T07:13:05.541Z,99733
2018-06-12T07:14:10.137Z,99730
2018-06-12T07:15:15.283Z,99727
2018-06-12T07:16:20.239Z,99727
2018-06-12T07:17:25.670Z,99724
2018-06-12T07:18:31.016Z,99727
2018-06-12T07:19:36.459Z,99718
2018-06-12T07:20:41.339Z,99715
2018-06-12T07:21:46.475Z,99724
2018-06-12T07:22:51.940Z,99724
2018-06-12T07:23:57.371Z,99727
2018-06-12T07:25:02.379Z,99718
2018-06-12T07:26:07.441Z,99733
2018-06-12T07:27:12.872Z,99733
2018-06-12T07:28:18.478Z,99727
2018-06-12T07:29:23.915Z,99718
2018-06-12T07:30:29.514Z,99730
2018-06-12T07:31:34.386Z,99727
2018-06-12T07:32:39.553Z,99727
2018-06-12T07:33:45.334Z,99730
2018-06-12T07:34:50.782Z,99724
2018-06-12T07:35:56.217Z,99733
2018-06-12T07:37:01.728Z,99736
2018-06-12T07:38:06.233Z,99736
2018-06-12T07:39:10.829Z,99742
2018-06-12T07:40:15.977Z,99739
2018-06-12T07:41:21.136Z,99745
2018-06-12T07:42:27.125Z,99742
2018-06-12T07:43:32.377Z,99742
2018-06-12T07:44:37.707Z,99745
2018-06-12T07:45:42.565Z,99739
2018-06-12T07:46:48.001Z,99736
2018-06-12T07:47:52.871Z,99736
2018-06-12T07:48:58.697Z,99739
2018-06-12T07:50:03.013Z,99742
2018-06-12T07:51:07.875Z,99745
2018-06-12T07:52:13.017Z,99739
2018-06-12T07:53:18.172Z,99742
2018-06-12T07:54:23.611Z,99745
2018-06-12T07:55:28.911Z,99736
2018-06-12T07:56:34.066Z,99747
2018-06-12T07:57:39.918Z,99733
2018-06-12T07:58:45.361Z,99739
2018-06-12T07:59:50.524Z,99747
2018-06-12T08:00:56.529Z,99744
2018-06-12T08:02:01.316Z,99747
2018-06-12T08:03:06.183Z,99736
2018-06-12T08:04:11.306Z,99736
2018-06-12T08:05:16.767Z,99739
2018-06-12T08:06:21.660Z,99744
2018-06-12T08:07:27.533Z,99744
2018-06-12T08:08:32.682Z,99750
2018-06-12T08:09:37.908Z,99742
2018-06-12T08:10:43.063Z,99736
2018-06-12T08:11:48.242Z,99747
2018-06-12T08:12:53.780Z,99742
2018-06-12T08:13:59.359Z,99727
2018-06-12T08:15:04.236Z,99744
2018-06-12T08:16:09.637Z,99747
2018-06-12T08:17:14.813Z,99747
2018-06-12T08:18:19.668Z,99736
2018-06-12T08:19:24.549Z,99739
2018-06-12T08:20:29.428Z,99739
2018-06-12T08:21:35.159Z,99756
2018-06-12T08:22:40.329Z,99742
2018-06-12T08:23:45.675Z,99744
2018-06-12T08:24:51.407Z,99744
2018-06-12T08:25:56.839Z,99744
2018-06-12T08:27:01.714Z,99733
2018-06-12T08:28:06.884Z,99733
2018-06-12T08:29:12.039Z,99742
2018-06-12T08:30:17.762Z,99736
2018-06-12T08:31:24.016Z,99742
2018-06-12T08:32:29.450Z,99753
2018-06-12T08:33:34.751Z,99742
2018-06-12T08:34:39.907Z,99744
2018-06-12T08:35:45.069Z,99747
2018-06-12T08:36:50.853Z,99742
2018-06-12T08:37:55.727Z,99733
2018-06-12T08:39:01.188Z,99739
2018-06-12T08:40:06.626Z,99739
2018-06-12T08:41:12.059Z,99733
2018-06-12T08:42:17.649Z,99744
2018-06-12T08:43:23.430Z,99739
2018-06-12T08:44:28.361Z,99736
2018-06-12T08:45:34.178Z,99733
2018-06-12T08:46:38.766Z,99742
2018-06-12T08:47:44.412Z,99739
2018-06-12T08:48:50.394Z,99747
2018-06-12T08:49:55.578Z,99733
2018-06-12T08:51:00.741Z,99742
2018-06-12T08:52:05.305Z,99739
2018-06-12T08:53:10.184Z,99736
2018-06-12T08:54:15.051Z,99736
2018-06-12T08:55:20.491Z,99742
2018-06-12T08:56:25.646Z,99739
2018-06-12T08:57:30.857Z,99739
2018-06-12T08:58:36.020Z,99736
2018-06-12T08:59:41.456Z,99745
2018-06-12T09:00:46.009Z,99739
2018-06-12T09:01:50.907Z,99739
2018-06-12T09:02:56.100Z,99733
2018-06-12T09:04:01.700Z,99744
2018-06-12T09:05:06.565Z,99747
2018-06-12T09:06:11.729Z,99736
2018-06-12T09:07:16.569Z,99736
2018-06-12T09:08:21.723Z,99727
2018-06-12T09:09:26.613Z,99733
2018-06-12T09:10:32.050Z,99727
2018-06-12T09:11:36.922Z,99736
2018-06-12T09:12:42.710Z,99739
2018-06-12T09:13:48.356Z,99724
2018-06-12T09:14:53.229Z,99724
2018-06-12T09:15:58.222Z,99724
2018-06-12T09:17:03.080Z,99727
2018-06-12T09:18:07.958Z,99715
2018-06-12T09:19:13.374Z,99721
2018-06-12T09:20:19.131Z,99712
2018-06-12T09:21:24.277Z,99718
2018-06-12T09:22:30.371Z,99718
2018-06-12T09:23:35.250Z,99715
2018-06-12T09:24:40.470Z,99721
2018-06-12T09:25:45.071Z,99721
2018-06-12T09:26:50.524Z,99721
2018-06-12T09:27:56.306Z,99724
2018-06-12T09:29:01.502Z,99727
2018-06-12T09:30:05.820Z,99715
2018-06-12T09:31:10.753Z,99721
2018-06-12T09:32:15.344Z,99724
2018-06-12T09:33:20.202Z,99715
2018-06-12T09:34:25.072Z,99724
2018-06-12T09:35:30.269Z,99718
2018-06-12T09:36:35.766Z,99715
2018-06-12T09:37:40.933Z,99721
2018-06-12T09:38:46.089Z,99718
2018-06-12T09:39:51.640Z,99715
2018-06-12T09:40:56.507Z,99718
2018-06-12T09:42:01.413Z,99727
2018-06-12T09:43:06.741Z,99721
2018-06-12T09:44:11.624Z,99724
2018-06-12T09:45:16.728Z,99721
2018-06-12T09:46:21.562Z,99721
2018-06-12T09:47:26.994Z,99721
2018-06-12T09:48:32.465Z,99724
2018-06-12T09:49:37.905Z,99724
2018-06-12T09:50:42.514Z,99718
2018-06-12T09:51:47.342Z,99727
2018-06-12T09:52:52.216Z,99724
2018-06-12T09:53:57.670Z,99727
2018-06-12T09:55:02.513Z,99738
2018-06-12T09:56:07.427Z,99724
2018-06-12T09:57:12.295Z,99730
2018-06-12T09:58:18.007Z,99721
2018-06-12T09:59:23.167Z,99724
2018-06-12T10:00:29.157Z,99721
2018-06-12T10:01:34.590Z,99727
2018-06-12T10:02:39.459Z,99727
2018-06-12T10:03:44.718Z,99730
2018-06-12T10:04:50.152Z,99727
2018-06-12T10:05:55.019Z,99718
2018-06-12T10:07:00.525Z,99736
2018-06-12T10:08:05.113Z,99733
2018-06-12T10:09:09.985Z,99730
2018-06-12T10:10:15.110Z,99739
2018-06-12T10:11:19.994Z,99733
2018-06-12T10:12:40.484Z,99733
2018-06-12T10:13:46.152Z,99727
2018-06-12T10:14:51.023Z,99736
2018-06-12T10:15:56.529Z,99730
2018-06-12T10:17:01.986Z,99733
2018-06-12T10:18:06.884Z,99730
2018-06-12T10:19:11.835Z,99730
2018-06-12T10:20:16.465Z,99733
2018-06-12T10:21:21.636Z,99718
2018-06-12T10:22:27.149Z,99718
2018-06-12T10:23:32.521Z,99716
2018-06-12T10:24:37.370Z,99727
2018-06-12T10:25:41.956Z,99733
2018-06-12T10:26:47.111Z,99727
2018-06-12T10:27:52.516Z,99730
2018-06-12T10:28:57.680Z,99724
2018-06-12T10:30:03.161Z,99721
2018-06-12T10:31:07.764Z,99742
2018-06-12T10:32:13.424Z,99736
2018-06-12T10:33:18.578Z,99736
2018-06-12T10:34:24.014Z,99730
2018-06-12T10:35:29.200Z,99724
2018-06-12T10:36:34.892Z,99730
2018-06-12T10:37:40.046Z,99730
2018-06-12T10:38:45.216Z,99733
2018-06-12T10:39:50.730Z,99727
2018-06-12T10:40:56.178Z,99718
2018-06-12T10:42:01.815Z,99739
2018-06-12T10:43:06.807Z,99727
2018-06-12T10:44:11.398Z,99730
2018-06-12T10:45:16.554Z,99736
2018-06-12T10:46:22.066Z,99730
2018-06-12T10:47:27.211Z,99736
2018-06-12T10:48:32.944Z,99739
2018-06-12T10:49:38.104Z,99748
2018-06-12T10:50:43.269Z,99736
2018-06-12T10:51:48.886Z,99748
2018-06-12T10:52:53.754Z,99748
2018-06-12T10:53:58.901Z,99737
2018-06-12T10:55:04.420Z,99742
2018-06-12T10:56:09.600Z,99737
2018-06-12T10:57:14.760Z,99748
2018-06-12T10:58:20.157Z,99748
2018-06-12T10:59:25.311Z,99745
2018-06-12T11:00:30.217Z,99745
2018-06-12T11:01:35.664Z,99743
2018-06-12T11:02:40.841Z,99734
2018-06-12T11:03:46.365Z,99743
2018-06-12T11:04:51.806Z,99748
2018-06-12T11:05:57.244Z,99734
2018-06-12T11:07:02.298Z,99731
2018-06-12T11:08:07.168Z,99728
2018-06-12T11:09:12.325Z,99740
2018-06-12T11:10:18.039Z,99748
2018-06-12T11:11:22.921Z,99734
2018-06-12T11:12:28.567Z,99740
2018-06-12T11:13:33.647Z,99740
2018-06-12T11:14:38.513Z,99728
2018-06-12T11:15:43.782Z,99728
2018-06-12T11:16:49.220Z,99740
2018-06-12T11:17:54.090Z,99751
2018-06-12T11:18:59.532Z,99731
2018-06-12T11:20:04.112Z,99746
2018-06-12T11:21:08.988Z,99728
2018-06-12T11:22:14.677Z,99725
2018-06-12T11:23:20.364Z,99725
2018-06-12T11:24:40.556Z,99737
2018-06-12T11:25:45.713Z,99722
2018-06-12T11:26:50.605Z,99723
2018-06-12T11:27:56.007Z,99725
2018-06-12T11:29:01.444Z,99731
2018-06-12T11:30:06.058Z,99725
2018-06-12T11:31:11.495Z,99731
2018-06-12T11:32:16.645Z,99728
2018-06-12T11:33:21.799Z,99725
2018-06-12T11:34:27.836Z,99725
2018-06-12T11:35:32.707Z,99714
2018-06-12T11:36:37.941Z,99714
2018-06-12T11:37:42.987Z,99717
2018-06-12T11:38:48.432Z,99723
2018-06-12T11:39:53.288Z,99714
2018-06-12T11:40:57.631Z,99720
2018-06-12T11:42:02.531Z,99717
2018-06-12T11:43:07.935Z,99725
2018-06-12T11:44:12.803Z,99717
2018-06-12T11:45:18.262Z,99720
2018-06-12T11:46:23.523Z,99723
2018-06-12T11:47:28.958Z,99714
2018-06-12T11:48:34.791Z,99711
2018-06-12T11:49:40.224Z,99717
2018-06-12T11:50:45.868Z,99720
2018-06-12T11:51:51.025Z,99714
2018-06-12T11:52:56.179Z,99717
2018-06-12T11:54:01.338Z,99711
2018-06-12T11:55:06.773Z,99711
2018-06-12T11:56:11.373Z,99705
2018-06-12T11:57:16.808Z,99711
2018-06-12T11:58:22.533Z,99714
2018-06-12T11:59:27.895Z,99711
2018-06-12T12:00:34.043Z,99711
2018-06-12T12:01:39.147Z,99717
2018-06-12T12:02:44.869Z,99708
2018-06-12T12:03:50.384Z,99714
2018-06-12T12:04:55.831Z,99700
2018-06-12T12:06:00.987Z,99711
2018-06-12T12:07:06.689Z,99705
2018-06-12T12:08:12.043Z,99708
2018-06-12T12:09:17.638Z,99720
2018-06-12T12:10:23.038Z,99702
2018-06-12T12:11:28.136Z,99702
2018-06-12T12:12:33.643Z,99708
2018-06-12T12:13:38.793Z,99702
2018-06-12T12:14:43.936Z,99697
2018-06-12T12:15:49.654Z,99705
2018-06-12T12:16:54.822Z,99700
2018-06-12T12:17:59.837Z,99700
2018-06-12T12:19:05.116Z,99691
2018-06-12T12:20:10.473Z,99697
2018-06-12T12:21:15.407Z,99699
2018-06-12T12:22:20.521Z,99694
2018-06-12T12:23:26.007Z,99700
2018-06-12T12:24:31.223Z,99697
2018-06-12T12:25:36.116Z,99688
2018-06-12T12:26:41.293Z,99702
2018-06-12T12:27:46.711Z,99708
2018-06-12T12:28:52.203Z,99702
2018-06-12T12:29:57.557Z,99694
2018-06-12T12:31:02.999Z,99700
2018-06-12T12:32:08.141Z,99691
2018-06-12T12:33:12.737Z,99694
2018-06-12T12:34:17.883Z,99697
2018-06-12T12:35:23.517Z,99694
2018-06-12T12:36:29.162Z,99697
2018-06-12T12:37:34.326Z,99691
2018-06-12T12:38:39.207Z,99691
2018-06-12T12:39:44.612Z,99694
2018-06-12T12:40:50.045Z,99694
2018-06-12T12:41:55.479Z,99682
2018-06-12T12:43:00.888Z,99688
2018-06-12T12:44:06.042Z,99694
2018-06-12T12:45:11.195Z,99694
2018-06-12T12:46:16.794Z,99682
2018-06-12T12:47:22.227Z,99688
2018-06-12T12:48:27.495Z,99679
2018-06-12T12:49:32.383Z,99688
2018-06-12T12:50:37.825Z,99691
2018-06-12T12:51:43.507Z,99694
2018-06-12T12:52:48.664Z,99688
2018-06-12T12:53:53.524Z,99691
2018-06-12T12:54:58.391Z,99697
2018-06-12T12:56:03.876Z,99703
2018-06-12T12:57:09.021Z,99679
2018-06-12T12:58:14.449Z,99688
2018-06-12T12:59:19.313Z,99685
2018-06-12T13:00:24.765Z,99685
2018-06-12T13:01:30.566Z,99691
2018-06-12T13:02:35.720Z,99688
2018-06-12T13:03:41.400Z,99691
2018-06-12T13:04:46.552Z,99674
2018-06-12T13:05:51.445Z,99685
2018-06-12T13:06:56.761Z,99682
2018-06-12T13:08:02.192Z,99685
2018-06-12T13:09:07.064Z,99680
2018-06-12T13:10:12.763Z,99688
2018-06-12T13:11:18.213Z,99680
2018-06-12T13:12:23.868Z,99674
2018-06-12T13:13:44.287Z,99691
2018-06-12T13:14:49.578Z,99685
2018-06-12T13:15:55.000Z,99671
2018-06-12T13:17:00.182Z,99680
2018-06-12T13:18:05.049Z,99682
2018-06-12T13:19:10.277Z,99691
2018-06-12T13:20:14.954Z,99682
2018-06-12T13:21:20.016Z,99682
2018-06-12T13:22:25.649Z,99674
2018-06-12T13:23:31.084Z,99671
2018-06-12T13:24:36.767Z,99674
2018-06-12T13:25:41.915Z,99680
2018-06-12T13:26:46.503Z,99677
2018-06-12T13:27:51.642Z,99671
2018-06-12T13:28:56.512Z,99677
2018-06-12T13:30:01.650Z,99677
2018-06-12T13:31:07.269Z,99677
2018-06-12T13:32:12.702Z,99680
2018-06-12T13:33:17.860Z,99680
2018-06-12T13:34:22.714Z,99677
2018-06-12T13:35:27.862Z,99680
2018-06-12T13:36:33.303Z,99677
2018-06-12T13:37:38.448Z,99683
2018-06-12T13:38:43.760Z,99668
2018-06-12T13:39:49.449Z,99680
2018-06-12T13:40:54.608Z,99680
2018-06-12T13:42:00.063Z,99674
2018-06-12T13:43:05.578Z,99680
2018-06-12T13:44:10.460Z,99665
2018-06-12T13:45:15.915Z,99674
2018-06-12T13:46:21.427Z,99680
2018-06-12T13:47:27.239Z,99671
2018-06-12T13:48:32.404Z,99668
2018-06-12T13:49:37.566Z,99671
2018-06-12T13:50:42.718Z,99677
2018-06-12T13:51:48.273Z,99662
2018-06-12T13:52:53.707Z,99665
2018-06-12T13:53:58.586Z,99680
2018-06-12T13:55:03.817Z,99662
2018-06-12T13:56:09.262Z,99665
2018-06-12T13:57:14.438Z,99668
2018-06-12T13:58:19.995Z,99665
2018-06-12T13:59:25.713Z,99662
2018-06-12T14:00:30.186Z,99680
2018-06-12T14:01:35.341Z,99671